sensor_id;sensor_type;location;lat;lon;timestamp;P1;durP1;ratioP1;P2;durP2;ratioP2
2928;SDS011;1474;51.460;7.150;2023-07-09T00:00:15;6.20;;;3.15;;
2928;SDS011;1474;51.460;7.150;2023-07-09T00:02:44;5.85;;;3.28;;
2928;SDS011;1474;51.460;7.150;2023-07-09T00:05:13;4.75;;;2.60;;
2928;SDS011;1474;51.460;7.150;2023-07-09T00:07:42;4.80;;;3.00;;
2928;SDS011;1474;51.460;7.150;2023-07-09T00:10:14;6.72;;;3.22;;
2928;SDS011;1474;51.460;7.150;2023-07-09T00:12:46;5.95;;;3.17;;
2928;SDS011;1474;51.460;7.150;2023-07-09T00:15:13;4.13;;;2.65;;
2928;SDS011;1474;51.460;7.150;2023-07-09T00:17:43;3.50;;;2.58;;
2928;SDS011;1474;51.460;7.150;2023-07-09T00:20:13;5.65;;;2.97;;
2928;SDS011;1474;51.460;7.150;2023-07-09T00:22:43;5.43;;;3.28;;
2928;SDS011;1474;51.460;7.150;2023-07-09T00:25:17;3.85;;;2.70;;
2928;SDS011;1474;51.460;7.150;2023-07-09T00:27:46;4.45;;;2.58;;
2928;SDS011;1474;51.460;7.150;2023-07-09T00:30:21;5.05;;;2.90;;
2928;SDS011;1474;51.460;7.150;2023-07-09T00:32:49;4.47;;;3.45;;
2928;SDS011;1474;51.460;7.150;2023-07-09T00:35:17;4.97;;;3.03;;
2928;SDS011;1474;51.460;7.150;2023-07-09T00:37:44;5.22;;;3.20;;
2928;SDS011;1474;51.460;7.150;2023-07-09T00:40:15;4.78;;;3.17;;
2928;SDS011;1474;51.460;7.150;2023-07-09T00:42:46;5.82;;;2.63;;
2928;SDS011;1474;51.460;7.150;2023-07-09T00:45:23;6.20;;;3.25;;
2928;SDS011;1474;51.460;7.150;2023-07-09T00:47:53;4.50;;;2.67;;
2928;SDS011;1474;51.460;7.150;2023-07-09T00:53:15;4.07;;;3.05;;
2928;SDS011;1474;51.460;7.150;2023-07-09T00:55:55;7.95;;;3.15;;
2928;SDS011;1474;51.460;7.150;2023-07-09T00:58:31;4.93;;;3.15;;
2928;SDS011;1474;51.460;7.150;2023-07-09T01:01:02;3.83;;;2.88;;
2928;SDS011;1474;51.460;7.150;2023-07-09T01:03:45;3.83;;;2.97;;
2928;SDS011;1474;51.460;7.150;2023-07-09T01:06:18;4.88;;;3.03;;
2928;SDS011;1474;51.460;7.150;2023-07-09T01:08:55;4.07;;;2.92;;
2928;SDS011;1474;51.460;7.150;2023-07-09T01:11:22;6.68;;;3.58;;
2928;SDS011;1474;51.460;7.150;2023-07-09T01:13:51;6.13;;;4.03;;
2928;SDS011;1474;51.460;7.150;2023-07-09T01:16:22;4.63;;;3.08;;
2928;SDS011;1474;51.460;7.150;2023-07-09T01:18:53;7.32;;;3.08;;
2928;SDS011;1474;51.460;7.150;2023-07-09T01:21:20;5.10;;;3.35;;
2928;SDS011;1474;51.460;7.150;2023-07-09T01:23:47;4.45;;;2.92;;
2928;SDS011;1474;51.460;7.150;2023-07-09T01:26:15;4.47;;;3.42;;
2928;SDS011;1474;51.460;7.150;2023-07-09T01:28:45;4.38;;;3.30;;
2928;SDS011;1474;51.460;7.150;2023-07-09T01:31:12;4.88;;;3.75;;
2928;SDS011;1474;51.460;7.150;2023-07-09T01:33:41;5.72;;;3.35;;
2928;SDS011;1474;51.460;7.150;2023-07-09T01:36:10;5.63;;;3.40;;
2928;SDS011;1474;51.460;7.150;2023-07-09T01:38:48;8.93;;;3.85;;
2928;SDS011;1474;51.460;7.150;2023-07-09T01:41:17;5.28;;;3.13;;
2928;SDS011;1474;51.460;7.150;2023-07-09T01:43:44;4.90;;;3.20;;
2928;SDS011;1474;51.460;7.150;2023-07-09T01:46:11;5.40;;;3.10;;
2928;SDS011;1474;51.460;7.150;2023-07-09T01:48:38;5.57;;;3.63;;
2928;SDS011;1474;51.460;7.150;2023-07-09T01:51:08;4.93;;;3.25;;
2928;SDS011;1474;51.460;7.150;2023-07-09T01:53:41;4.55;;;3.28;;
2928;SDS011;1474;51.460;7.150;2023-07-09T01:56:09;5.25;;;2.72;;
2928;SDS011;1474;51.460;7.150;2023-07-09T01:58:36;5.07;;;3.60;;
2928;SDS011;1474;51.460;7.150;2023-07-09T02:01:06;5.82;;;3.55;;
2928;SDS011;1474;51.460;7.150;2023-07-09T02:03:33;4.95;;;3.25;;
2928;SDS011;1474;51.460;7.150;2023-07-09T02:05:59;4.32;;;3.22;;
2928;SDS011;1474;51.460;7.150;2023-07-09T02:08:27;5.88;;;3.15;;
2928;SDS011;1474;51.460;7.150;2023-07-09T02:10:53;4.22;;;3.03;;
2928;SDS011;1474;51.460;7.150;2023-07-09T02:13:19;5.25;;;3.08;;
2928;SDS011;1474;51.460;7.150;2023-07-09T02:15:44;5.45;;;3.30;;
2928;SDS011;1474;51.460;7.150;2023-07-09T02:18:11;4.22;;;3.00;;
2928;SDS011;1474;51.460;7.150;2023-07-09T02:20:38;4.22;;;3.08;;
2928;SDS011;1474;51.460;7.150;2023-07-09T02:23:05;4.38;;;3.33;;
2928;SDS011;1474;51.460;7.150;2023-07-09T02:25:34;6.35;;;3.40;;
2928;SDS011;1474;51.460;7.150;2023-07-09T02:28:00;4.60;;;3.00;;
2928;SDS011;1474;51.460;7.150;2023-07-09T02:30:26;5.53;;;3.42;;
2928;SDS011;1474;51.460;7.150;2023-07-09T02:32:51;6.57;;;3.63;;
2928;SDS011;1474;51.460;7.150;2023-07-09T02:35:19;6.00;;;3.22;;
2928;SDS011;1474;51.460;7.150;2023-07-09T02:37:46;4.82;;;3.03;;
2928;SDS011;1474;51.460;7.150;2023-07-09T02:40:12;5.65;;;3.70;;
2928;SDS011;1474;51.460;7.150;2023-07-09T02:42:40;5.28;;;3.10;;
2928;SDS011;1474;51.460;7.150;2023-07-09T02:45:06;7.30;;;3.50;;
2928;SDS011;1474;51.460;7.150;2023-07-09T02:47:35;6.20;;;3.40;;
2928;SDS011;1474;51.460;7.150;2023-07-09T02:50:00;4.07;;;3.15;;
2928;SDS011;1474;51.460;7.150;2023-07-09T02:52:32;4.88;;;3.20;;
2928;SDS011;1474;51.460;7.150;2023-07-09T02:54:57;4.47;;;3.10;;
2928;SDS011;1474;51.460;7.150;2023-07-09T02:57:23;6.13;;;3.47;;
2928;SDS011;1474;51.460;7.150;2023-07-09T02:59:49;4.75;;;3.10;;
2928;SDS011;1474;51.460;7.150;2023-07-09T03:02:15;5.20;;;3.55;;
2928;SDS011;1474;51.460;7.150;2023-07-09T03:04:41;6.50;;;3.80;;
2928;SDS011;1474;51.460;7.150;2023-07-09T03:07:07;5.47;;;3.75;;
2928;SDS011;1474;51.460;7.150;2023-07-09T03:09:33;5.97;;;3.67;;
2928;SDS011;1474;51.460;7.150;2023-07-09T03:11:58;7.35;;;4.03;;
2928;SDS011;1474;51.460;7.150;2023-07-09T03:14:24;6.28;;;3.75;;
2928;SDS011;1474;51.460;7.150;2023-07-09T03:16:50;4.35;;;3.38;;
2928;SDS011;1474;51.460;7.150;2023-07-09T03:19:16;5.65;;;3.35;;
2928;SDS011;1474;51.460;7.150;2023-07-09T03:21:42;4.75;;;3.00;;
2928;SDS011;1474;51.460;7.150;2023-07-09T03:24:08;5.20;;;3.35;;
2928;SDS011;1474;51.460;7.150;2023-07-09T03:26:34;8.90;;;4.80;;
2928;SDS011;1474;51.460;7.150;2023-07-09T03:29:00;5.82;;;3.70;;
2928;SDS011;1474;51.460;7.150;2023-07-09T03:31:26;5.90;;;3.50;;
2928;SDS011;1474;51.460;7.150;2023-07-09T03:33:52;4.70;;;3.40;;
2928;SDS011;1474;51.460;7.150;2023-07-09T03:36:18;3.92;;;3.40;;
2928;SDS011;1474;51.460;7.150;2023-07-09T03:38:45;5.95;;;3.72;;
2928;SDS011;1474;51.460;7.150;2023-07-09T03:41:11;4.72;;;3.78;;
2928;SDS011;1474;51.460;7.150;2023-07-09T03:43:37;5.47;;;3.17;;
2928;SDS011;1474;51.460;7.150;2023-07-09T03:46:03;4.93;;;3.53;;
2928;SDS011;1474;51.460;7.150;2023-07-09T03:48:29;5.57;;;3.58;;
2928;SDS011;1474;51.460;7.150;2023-07-09T03:50:54;7.07;;;3.92;;
2928;SDS011;1474;51.460;7.150;2023-07-09T03:53:20;6.30;;;3.00;;
2928;SDS011;1474;51.460;7.150;2023-07-09T03:55:50;6.00;;;3.83;;
2928;SDS011;1474;51.460;7.150;2023-07-09T03:58:19;5.35;;;3.83;;
2928;SDS011;1474;51.460;7.150;2023-07-09T04:00:45;5.82;;;3.38;;
2928;SDS011;1474;51.460;7.150;2023-07-09T04:03:11;6.18;;;3.63;;
2928;SDS011;1474;51.460;7.150;2023-07-09T04:05:37;5.03;;;3.47;;
2928;SDS011;1474;51.460;7.150;2023-07-09T04:08:03;6.13;;;4.05;;
2928;SDS011;1474;51.460;7.150;2023-07-09T04:10:30;8.65;;;3.42;;
2928;SDS011;1474;51.460;7.150;2023-07-09T04:12:56;4.68;;;3.40;;
2928;SDS011;1474;51.460;7.150;2023-07-09T04:15:22;6.00;;;3.70;;
2928;SDS011;1474;51.460;7.150;2023-07-09T04:17:48;6.32;;;3.90;;
2928;SDS011;1474;51.460;7.150;2023-07-09T04:20:14;4.90;;;3.72;;
2928;SDS011;1474;51.460;7.150;2023-07-09T04:22:40;8.05;;;4.13;;
2928;SDS011;1474;51.460;7.150;2023-07-09T04:25:07;5.78;;;4.38;;
2928;SDS011;1474;51.460;7.150;2023-07-09T04:27:35;4.68;;;3.90;;
2928;SDS011;1474;51.460;7.150;2023-07-09T04:30:12;6.75;;;3.97;;
2928;SDS011;1474;51.460;7.150;2023-07-09T04:32:39;4.85;;;3.60;;
2928;SDS011;1474;51.460;7.150;2023-07-09T04:35:08;6.68;;;4.10;;
2928;SDS011;1474;51.460;7.150;2023-07-09T04:37:36;5.68;;;4.10;;
2928;SDS011;1474;51.460;7.150;2023-07-09T04:40:03;6.68;;;4.45;;
2928;SDS011;1474;51.460;7.150;2023-07-09T04:42:32;5.82;;;3.83;;
2928;SDS011;1474;51.460;7.150;2023-07-09T04:44:58;7.47;;;4.13;;
2928;SDS011;1474;51.460;7.150;2023-07-09T04:47:23;7.55;;;4.15;;
2928;SDS011;1474;51.460;7.150;2023-07-09T04:49:49;5.38;;;3.92;;
2928;SDS011;1474;51.460;7.150;2023-07-09T04:52:15;6.30;;;4.07;;
2928;SDS011;1474;51.460;7.150;2023-07-09T04:54:41;7.97;;;4.75;;
2928;SDS011;1474;51.460;7.150;2023-07-09T04:57:11;6.28;;;4.32;;
2928;SDS011;1474;51.460;7.150;2023-07-09T04:59:37;5.93;;;3.58;;
2928;SDS011;1474;51.460;7.150;2023-07-09T05:02:03;6.28;;;3.65;;
2928;SDS011;1474;51.460;7.150;2023-07-09T05:04:30;6.57;;;3.97;;
2928;SDS011;1474;51.460;7.150;2023-07-09T05:06:56;5.15;;;3.78;;
2928;SDS011;1474;51.460;7.150;2023-07-09T05:09:23;6.75;;;4.03;;
2928;SDS011;1474;51.460;7.150;2023-07-09T05:11:49;5.78;;;4.05;;
2928;SDS011;1474;51.460;7.150;2023-07-09T05:14:18;4.97;;;3.60;;
2928;SDS011;1474;51.460;7.150;2023-07-09T05:16:44;6.35;;;4.13;;
2928;SDS011;1474;51.460;7.150;2023-07-09T05:19:10;8.38;;;4.10;;
2928;SDS011;1474;51.460;7.150;2023-07-09T05:21:37;7.57;;;4.13;;
2928;SDS011;1474;51.460;7.150;2023-07-09T05:24:03;8.05;;;3.58;;
2928;SDS011;1474;51.460;7.150;2023-07-09T05:26:30;5.00;;;3.55;;
2928;SDS011;1474;51.460;7.150;2023-07-09T05:28:56;4.55;;;3.45;;
2928;SDS011;1474;51.460;7.150;2023-07-09T05:31:22;7.65;;;3.75;;
2928;SDS011;1474;51.460;7.150;2023-07-09T05:33:51;6.43;;;3.65;;
2928;SDS011;1474;51.460;7.150;2023-07-09T05:36:16;4.90;;;3.50;;
2928;SDS011;1474;51.460;7.150;2023-07-09T05:38:44;6.03;;;3.90;;
2928;SDS011;1474;51.460;7.150;2023-07-09T05:41:13;4.63;;;3.63;;
2928;SDS011;1474;51.460;7.150;2023-07-09T05:43:41;5.50;;;3.67;;
2928;SDS011;1474;51.460;7.150;2023-07-09T05:46:09;6.75;;;3.75;;
2928;SDS011;1474;51.460;7.150;2023-07-09T05:48:37;6.85;;;3.28;;
2928;SDS011;1474;51.460;7.150;2023-07-09T05:51:03;7.00;;;3.78;;
2928;SDS011;1474;51.460;7.150;2023-07-09T05:53:29;5.15;;;3.40;;
2928;SDS011;1474;51.460;7.150;2023-07-09T05:55:55;6.10;;;3.63;;
2928;SDS011;1474;51.460;7.150;2023-07-09T05:58:21;4.82;;;3.55;;
2928;SDS011;1474;51.460;7.150;2023-07-09T06:00:52;5.25;;;3.38;;
2928;SDS011;1474;51.460;7.150;2023-07-09T06:03:19;4.45;;;3.30;;
2928;SDS011;1474;51.460;7.150;2023-07-09T06:05:47;5.05;;;3.55;;
2928;SDS011;1474;51.460;7.150;2023-07-09T06:08:17;5.72;;;4.00;;
2928;SDS011;1474;51.460;7.150;2023-07-09T06:10:51;4.15;;;3.67;;
2928;SDS011;1474;51.460;7.150;2023-07-09T06:13:20;8.30;;;4.47;;
2928;SDS011;1474;51.460;7.150;2023-07-09T06:15:47;6.18;;;3.92;;
2928;SDS011;1474;51.460;7.150;2023-07-09T06:18:16;6.05;;;3.50;;
2928;SDS011;1474;51.460;7.150;2023-07-09T06:20:45;5.25;;;4.03;;
2928;SDS011;1474;51.460;7.150;2023-07-09T06:23:23;5.85;;;3.90;;
2928;SDS011;1474;51.460;7.150;2023-07-09T06:25:48;4.65;;;3.58;;
2928;SDS011;1474;51.460;7.150;2023-07-09T06:28:16;5.53;;;3.80;;
2928;SDS011;1474;51.460;7.150;2023-07-09T06:30:45;5.55;;;3.35;;
2928;SDS011;1474;51.460;7.150;2023-07-09T06:33:15;5.65;;;3.38;;
2928;SDS011;1474;51.460;7.150;2023-07-09T06:35:49;4.95;;;3.70;;
2928;SDS011;1474;51.460;7.150;2023-07-09T06:38:22;5.87;;;4.00;;
2928;SDS011;1474;51.460;7.150;2023-07-09T06:40:48;7.57;;;4.25;;
2928;SDS011;1474;51.460;7.150;2023-07-09T06:43:15;6.22;;;3.90;;
2928;SDS011;1474;51.460;7.150;2023-07-09T06:45:52;5.53;;;3.75;;
2928;SDS011;1474;51.460;7.150;2023-07-09T06:48:24;5.80;;;3.70;;
2928;SDS011;1474;51.460;7.150;2023-07-09T06:50:53;4.28;;;3.47;;
2928;SDS011;1474;51.460;7.150;2023-07-09T06:53:21;4.28;;;3.80;;
2928;SDS011;1474;51.460;7.150;2023-07-09T06:55:47;7.38;;;3.90;;
2928;SDS011;1474;51.460;7.150;2023-07-09T06:58:15;5.57;;;3.70;;
2928;SDS011;1474;51.460;7.150;2023-07-09T07:01:00;6.07;;;3.97;;
2928;SDS011;1474;51.460;7.150;2023-07-09T07:03:30;5.93;;;3.55;;
2928;SDS011;1474;51.460;7.150;2023-07-09T07:05:58;6.75;;;3.63;;
2928;SDS011;1474;51.460;7.150;2023-07-09T07:08:24;5.68;;;3.65;;
2928;SDS011;1474;51.460;7.150;2023-07-09T07:10:54;4.72;;;3.45;;
2928;SDS011;1474;51.460;7.150;2023-07-09T07:13:34;5.30;;;4.10;;
2928;SDS011;1474;51.460;7.150;2023-07-09T07:16:04;6.97;;;3.92;;
2928;SDS011;1474;51.460;7.150;2023-07-09T07:18:32;5.03;;;3.83;;
2928;SDS011;1474;51.460;7.150;2023-07-09T07:20:59;5.07;;;3.58;;
2928;SDS011;1474;51.460;7.150;2023-07-09T07:23:26;6.25;;;4.20;;
2928;SDS011;1474;51.460;7.150;2023-07-09T07:25:52;5.53;;;4.40;;
2928;SDS011;1474;51.460;7.150;2023-07-09T07:28:19;6.57;;;3.28;;
2928;SDS011;1474;51.460;7.150;2023-07-09T07:30:46;5.72;;;3.92;;
2928;SDS011;1474;51.460;7.150;2023-07-09T07:33:38;6.75;;;4.28;;
2928;SDS011;1474;51.460;7.150;2023-07-09T07:36:10;5.22;;;3.83;;
2928;SDS011;1474;51.460;7.150;2023-07-09T07:38:36;5.85;;;4.45;;
2928;SDS011;1474;51.460;7.150;2023-07-09T07:41:02;6.25;;;3.83;;
2928;SDS011;1474;51.460;7.150;2023-07-09T07:43:28;5.78;;;4.40;;
2928;SDS011;1474;51.460;7.150;2023-07-09T07:45:54;7.07;;;4.05;;
2928;SDS011;1474;51.460;7.150;2023-07-09T07:48:19;6.05;;;3.92;;
2928;SDS011;1474;51.460;7.150;2023-07-09T07:50:47;7.22;;;4.05;;
2928;SDS011;1474;51.460;7.150;2023-07-09T07:53:15;5.43;;;3.80;;
2928;SDS011;1474;51.460;7.150;2023-07-09T07:55:42;6.05;;;3.90;;
2928;SDS011;1474;51.460;7.150;2023-07-09T07:58:09;5.18;;;4.57;;
2928;SDS011;1474;51.460;7.150;2023-07-09T08:00:37;5.55;;;4.25;;
2928;SDS011;1474;51.460;7.150;2023-07-09T08:03:04;6.70;;;3.92;;
2928;SDS011;1474;51.460;7.150;2023-07-09T08:05:30;6.47;;;4.63;;
2928;SDS011;1474;51.460;7.150;2023-07-09T08:07:56;8.18;;;4.47;;
2928;SDS011;1474;51.460;7.150;2023-07-09T08:10:22;5.97;;;4.32;;
2928;SDS011;1474;51.460;7.150;2023-07-09T08:12:48;4.85;;;4.07;;
2928;SDS011;1474;51.460;7.150;2023-07-09T08:15:13;8.45;;;4.28;;
2928;SDS011;1474;51.460;7.150;2023-07-09T08:17:39;8.35;;;4.70;;
2928;SDS011;1474;51.460;7.150;2023-07-09T08:20:05;7.32;;;4.30;;
2928;SDS011;1474;51.460;7.150;2023-07-09T08:22:32;6.38;;;4.18;;
2928;SDS011;1474;51.460;7.150;2023-07-09T08:24:57;5.45;;;4.40;;
2928;SDS011;1474;51.460;7.150;2023-07-09T08:27:23;5.32;;;4.55;;
2928;SDS011;1474;51.460;7.150;2023-07-09T08:29:49;7.32;;;4.22;;
2928;SDS011;1474;51.460;7.150;2023-07-09T08:32:15;8.32;;;4.10;;
2928;SDS011;1474;51.460;7.150;2023-07-09T08:34:40;7.25;;;4.53;;
2928;SDS011;1474;51.460;7.150;2023-07-09T08:37:07;8.80;;;4.63;;
2928;SDS011;1474;51.460;7.150;2023-07-09T08:39:34;5.53;;;4.22;;
2928;SDS011;1474;51.460;7.150;2023-07-09T08:42:05;5.65;;;3.90;;
2928;SDS011;1474;51.460;7.150;2023-07-09T08:55:04;6.20;;;4.35;;
2928;SDS011;1474;51.460;7.150;2023-07-09T08:57:44;9.85;;;4.60;;
2928;SDS011;1474;51.460;7.150;2023-07-09T09:00:22;5.10;;;4.10;;
2928;SDS011;1474;51.460;7.150;2023-07-09T09:03:04;5.57;;;3.55;;
2928;SDS011;1474;51.460;7.150;2023-07-09T09:05:39;7.15;;;4.20;;
2928;SDS011;1474;51.460;7.150;2023-07-09T09:08:14;5.45;;;3.97;;
2928;SDS011;1474;51.460;7.150;2023-07-09T09:11:14;4.72;;;3.85;;
2928;SDS011;1474;51.460;7.150;2023-07-09T09:14:01;5.93;;;3.83;;
2928;SDS011;1474;51.460;7.150;2023-07-09T09:16:44;6.45;;;3.72;;
2928;SDS011;1474;51.460;7.150;2023-07-09T09:19:21;5.28;;;4.18;;
2928;SDS011;1474;51.460;7.150;2023-07-09T09:22:04;3.80;;;3.35;;
2928;SDS011;1474;51.460;7.150;2023-07-09T09:27:30;4.90;;;3.78;;
2928;SDS011;1474;51.460;7.150;2023-07-09T09:29:56;7.22;;;4.30;;
2928;SDS011;1474;51.460;7.150;2023-07-09T09:32:22;4.85;;;3.88;;
2928;SDS011;1474;51.460;7.150;2023-07-09T09:34:53;5.32;;;3.83;;
2928;SDS011;1474;51.460;7.150;2023-07-09T09:37:28;4.95;;;3.60;;
2928;SDS011;1474;51.460;7.150;2023-07-09T09:39:56;4.95;;;3.83;;
2928;SDS011;1474;51.460;7.150;2023-07-09T09:42:24;4.73;;;3.60;;
2928;SDS011;1474;51.460;7.150;2023-07-09T09:44:53;5.05;;;3.60;;
2928;SDS011;1474;51.460;7.150;2023-07-09T09:47:20;6.32;;;3.88;;
2928;SDS011;1474;51.460;7.150;2023-07-09T09:49:51;4.80;;;3.58;;
2928;SDS011;1474;51.460;7.150;2023-07-09T09:52:18;4.20;;;3.35;;
2928;SDS011;1474;51.460;7.150;2023-07-09T09:54:52;5.93;;;3.70;;
2928;SDS011;1474;51.460;7.150;2023-07-09T09:57:27;6.28;;;3.70;;
2928;SDS011;1474;51.460;7.150;2023-07-09T09:59:56;5.25;;;3.53;;
2928;SDS011;1474;51.460;7.150;2023-07-09T10:02:24;5.80;;;4.13;;
2928;SDS011;1474;51.460;7.150;2023-07-09T10:04:51;5.28;;;3.08;;
2928;SDS011;1474;51.460;7.150;2023-07-09T10:07:34;7.65;;;3.22;;
2928;SDS011;1474;51.460;7.150;2023-07-09T10:10:12;4.03;;;3.15;;
2928;SDS011;1474;51.460;7.150;2023-07-09T10:12:52;4.10;;;3.30;;
2928;SDS011;1474;51.460;7.150;2023-07-09T10:21:30;4.82;;;3.22;;
2928;SDS011;1474;51.460;7.150;2023-07-09T10:27:17;5.10;;;3.10;;
2928;SDS011;1474;51.460;7.150;2023-07-09T10:39:28;4.35;;;3.10;;
2928;SDS011;1474;51.460;7.150;2023-07-09T10:42:30;5.55;;;3.38;;
2928;SDS011;1474;51.460;7.150;2023-07-09T10:45:15;4.18;;;3.35;;
2928;SDS011;1474;51.460;7.150;2023-07-09T10:47:56;5.20;;;3.33;;
2928;SDS011;1474;51.460;7.150;2023-07-09T12:44:50;5.07;;;2.53;;
2928;SDS011;1474;51.460;7.150;2023-07-09T12:47:34;3.42;;;2.72;;
2928;SDS011;1474;51.460;7.150;2023-07-09T12:53:33;5.30;;;2.95;;
2928;SDS011;1474;51.460;7.150;2023-07-09T12:56:01;6.53;;;2.83;;
2928;SDS011;1474;51.460;7.150;2023-07-09T12:58:29;4.32;;;2.50;;
2928;SDS011;1474;51.460;7.150;2023-07-09T13:00:59;5.65;;;2.90;;
2928;SDS011;1474;51.460;7.150;2023-07-09T13:03:31;5.43;;;2.78;;
2928;SDS011;1474;51.460;7.150;2023-07-09T13:06:05;3.42;;;2.60;;
2928;SDS011;1474;51.460;7.150;2023-07-09T13:08:54;5.80;;;3.03;;
2928;SDS011;1474;51.460;7.150;2023-07-09T13:11:25;6.00;;;4.88;;
2928;SDS011;1474;51.460;7.150;2023-07-09T13:14:03;6.25;;;4.68;;
2928;SDS011;1474;51.460;7.150;2023-07-09T13:16:40;6.90;;;3.08;;
2928;SDS011;1474;51.460;7.150;2023-07-09T13:19:06;3.78;;;2.95;;
2928;SDS011;1474;51.460;7.150;2023-07-09T13:21:32;3.78;;;2.60;;
2928;SDS011;1474;51.460;7.150;2023-07-09T13:23:58;5.10;;;2.85;;
2928;SDS011;1474;51.460;7.150;2023-07-09T13:26:24;3.33;;;2.80;;
2928;SDS011;1474;51.460;7.150;2023-07-09T13:29:33;6.80;;;3.10;;
2928;SDS011;1474;51.460;7.150;2023-07-09T13:31:42;6.18;;;3.28;;
2928;SDS011;1474;51.460;7.150;2023-07-09T13:34:25;4.05;;;2.72;;
2928;SDS011;1474;51.460;7.150;2023-07-09T13:36:58;3.97;;;3.17;;
2928;SDS011;1474;51.460;7.150;2023-07-09T13:39:24;4.10;;;2.90;;
2928;SDS011;1474;51.460;7.150;2023-07-09T13:41:50;3.97;;;3.03;;
2928;SDS011;1474;51.460;7.150;2023-07-09T13:44:26;4.72;;;3.53;;
2928;SDS011;1474;51.460;7.150;2023-07-09T13:46:55;4.40;;;2.95;;
2928;SDS011;1474;51.460;7.150;2023-07-09T13:49:23;5.53;;;2.95;;
2928;SDS011;1474;51.460;7.150;2023-07-09T13:51:53;5.97;;;3.20;;
2928;SDS011;1474;51.460;7.150;2023-07-09T13:54:24;6.15;;;3.33;;
2928;SDS011;1474;51.460;7.150;2023-07-09T13:57:03;4.43;;;3.47;;
2928;SDS011;1474;51.460;7.150;2023-07-09T13:59:31;4.95;;;3.17;;
2928;SDS011;1474;51.460;7.150;2023-07-09T14:01:58;5.72;;;3.58;;
2928;SDS011;1474;51.460;7.150;2023-07-09T14:04:25;4.93;;;3.05;;
2928;SDS011;1474;51.460;7.150;2023-07-09T14:06:54;7.15;;;4.00;;
2928;SDS011;1474;51.460;7.150;2023-07-09T14:09:20;9.82;;;4.63;;
2928;SDS011;1474;51.460;7.150;2023-07-09T14:11:53;10.15;;;4.88;;
2928;SDS011;1474;51.460;7.150;2023-07-09T14:14:24;4.15;;;3.63;;
2928;SDS011;1474;51.460;7.150;2023-07-09T14:16:56;6.03;;;3.40;;
2928;SDS011;1474;51.460;7.150;2023-07-09T14:19:23;5.32;;;4.00;;
2928;SDS011;1474;51.460;7.150;2023-07-09T14:21:49;7.20;;;4.85;;
2928;SDS011;1474;51.460;7.150;2023-07-09T14:26:50;4.15;;;3.25;;
2928;SDS011;1474;51.460;7.150;2023-07-09T14:29:17;5.93;;;4.05;;
2928;SDS011;1474;51.460;7.150;2023-07-09T14:31:44;6.50;;;3.78;;
2928;SDS011;1474;51.460;7.150;2023-07-09T14:36:51;8.63;;;3.70;;
2928;SDS011;1474;51.460;7.150;2023-07-09T14:39:19;5.28;;;4.03;;
2928;SDS011;1474;51.460;7.150;2023-07-09T14:41:45;7.32;;;3.50;;
2928;SDS011;1474;51.460;7.150;2023-07-09T14:44:25;4.03;;;3.38;;
2928;SDS011;1474;51.460;7.150;2023-07-09T14:46:56;4.57;;;3.58;;
2928;SDS011;1474;51.460;7.150;2023-07-09T14:49:24;6.85;;;3.42;;
2928;SDS011;1474;51.460;7.150;2023-07-09T14:51:52;4.15;;;3.03;;
2928;SDS011;1474;51.460;7.150;2023-07-09T14:54:23;9.65;;;3.25;;
2928;SDS011;1474;51.460;7.150;2023-07-09T14:56:52;7.32;;;3.05;;
2928;SDS011;1474;51.460;7.150;2023-07-09T14:59:21;9.15;;;4.28;;
2928;SDS011;1474;51.460;7.150;2023-07-09T15:01:48;8.15;;;4.50;;
2928;SDS011;1474;51.460;7.150;2023-07-09T15:06:47;7.80;;;3.50;;
2928;SDS011;1474;51.460;7.150;2023-07-09T15:09:14;5.45;;;3.10;;
2928;SDS011;1474;51.460;7.150;2023-07-09T15:11:42;5.95;;;2.95;;
2928;SDS011;1474;51.460;7.150;2023-07-09T15:14:11;4.43;;;2.88;;
2928;SDS011;1474;51.460;7.150;2023-07-09T15:16:37;6.72;;;2.63;;
2928;SDS011;1474;51.460;7.150;2023-07-09T15:19:07;6.05;;;3.25;;
2928;SDS011;1474;51.460;7.150;2023-07-09T15:21:40;9.20;;;4.20;;
2928;SDS011;1474;51.460;7.150;2023-07-09T15:24:25;9.70;;;4.55;;
2928;SDS011;1474;51.460;7.150;2023-07-09T15:26:57;10.35;;;5.03;;
2928;SDS011;1474;51.460;7.150;2023-07-09T15:29:25;12.82;;;4.70;;
2928;SDS011;1474;51.460;7.150;2023-07-09T15:31:55;7.97;;;4.10;;
2928;SDS011;1474;51.460;7.150;2023-07-09T15:34:24;8.43;;;3.88;;
2928;SDS011;1474;51.460;7.150;2023-07-09T15:36:50;7.28;;;4.15;;
2928;SDS011;1474;51.460;7.150;2023-07-09T15:39:18;13.40;;;4.85;;
2928;SDS011;1474;51.460;7.150;2023-07-09T15:41:45;6.38;;;3.92;;
2928;SDS011;1474;51.460;7.150;2023-07-09T15:44:12;8.90;;;4.68;;
2928;SDS011;1474;51.460;7.150;2023-07-09T15:47:01;7.28;;;4.25;;
2928;SDS011;1474;51.460;7.150;2023-07-09T15:49:29;8.32;;;4.30;;
2928;SDS011;1474;51.460;7.150;2023-07-09T15:51:55;8.68;;;4.38;;
2928;SDS011;1474;51.460;7.150;2023-07-09T15:54:24;8.07;;;4.43;;
2928;SDS011;1474;51.460;7.150;2023-07-09T15:56:51;6.28;;;4.10;;
2928;SDS011;1474;51.460;7.150;2023-07-09T15:59:40;6.53;;;3.88;;
2928;SDS011;1474;51.460;7.150;2023-07-09T16:02:10;7.60;;;4.78;;
2928;SDS011;1474;51.460;7.150;2023-07-09T16:04:42;7.32;;;4.03;;
2928;SDS011;1474;51.460;7.150;2023-07-09T16:09:36;5.20;;;4.70;;
2928;SDS011;1474;51.460;7.150;2023-07-09T16:12:04;8.35;;;4.60;;
2928;SDS011;1474;51.460;7.150;2023-07-09T16:14:37;5.93;;;4.47;;
2928;SDS011;1474;51.460;7.150;2023-07-09T16:17:04;7.60;;;5.00;;
2928;SDS011;1474;51.460;7.150;2023-07-09T16:19:35;8.00;;;4.47;;
2928;SDS011;1474;51.460;7.150;2023-07-09T16:22:01;8.13;;;4.97;;
2928;SDS011;1474;51.460;7.150;2023-07-09T16:24:33;7.53;;;4.65;;
2928;SDS011;1474;51.460;7.150;2023-07-09T16:27:02;7.28;;;4.38;;
2928;SDS011;1474;51.460;7.150;2023-07-09T16:29:31;6.13;;;4.50;;
2928;SDS011;1474;51.460;7.150;2023-07-09T16:31:59;7.63;;;4.55;;
2928;SDS011;1474;51.460;7.150;2023-07-09T16:34:26;6.45;;;4.80;;
2928;SDS011;1474;51.460;7.150;2023-07-09T16:36:54;4.95;;;4.07;;
2928;SDS011;1474;51.460;7.150;2023-07-09T16:39:35;6.72;;;4.50;;
2928;SDS011;1474;51.460;7.150;2023-07-09T16:42:08;6.72;;;4.60;;
2928;SDS011;1474;51.460;7.150;2023-07-09T16:44:39;7.15;;;4.80;;
2928;SDS011;1474;51.460;7.150;2023-07-09T16:47:19;8.05;;;4.45;;
2928;SDS011;1474;51.460;7.150;2023-07-09T16:49:45;5.32;;;4.47;;
2928;SDS011;1474;51.460;7.150;2023-07-09T16:54:44;7.13;;;5.13;;
2928;SDS011;1474;51.460;7.150;2023-07-09T16:57:14;5.55;;;4.45;;
2928;SDS011;1474;51.460;7.150;2023-07-09T16:59:42;5.60;;;4.75;;
2928;SDS011;1474;51.460;7.150;2023-07-09T17:04:56;7.85;;;4.95;;
2928;SDS011;1474;51.460;7.150;2023-07-09T17:07:24;8.93;;;6.15;;
2928;SDS011;1474;51.460;7.150;2023-07-09T17:09:54;8.18;;;4.80;;
2928;SDS011;1474;51.460;7.150;2023-07-09T17:12:20;7.53;;;5.10;;
2928;SDS011;1474;51.460;7.150;2023-07-09T17:14:46;6.55;;;4.90;;
2928;SDS011;1474;51.460;7.150;2023-07-09T17:17:13;5.38;;;4.75;;
2928;SDS011;1474;51.460;7.150;2023-07-09T17:19:42;7.93;;;5.75;;
2928;SDS011;1474;51.460;7.150;2023-07-09T17:22:19;6.32;;;5.72;;
2928;SDS011;1474;51.460;7.150;2023-07-09T17:24:58;6.55;;;5.15;;
2928;SDS011;1474;51.460;7.150;2023-07-09T17:27:26;7.13;;;5.72;;
2928;SDS011;1474;51.460;7.150;2023-07-09T17:29:52;6.40;;;5.57;;
2928;SDS011;1474;51.460;7.150;2023-07-09T17:32:18;6.53;;;5.80;;
2928;SDS011;1474;51.460;7.150;2023-07-09T17:34:44;7.85;;;5.40;;
2928;SDS011;1474;51.460;7.150;2023-07-09T17:37:13;5.68;;;4.55;;
2928;SDS011;1474;51.460;7.150;2023-07-09T17:39:41;6.00;;;5.00;;
2928;SDS011;1474;51.460;7.150;2023-07-09T17:42:14;5.05;;;4.55;;
2928;SDS011;1474;51.460;7.150;2023-07-09T17:44:41;6.25;;;4.75;;
2928;SDS011;1474;51.460;7.150;2023-07-09T17:47:14;7.55;;;4.45;;
2928;SDS011;1474;51.460;7.150;2023-07-09T17:49:43;5.65;;;4.97;;
2928;SDS011;1474;51.460;7.150;2023-07-09T17:52:14;5.80;;;4.20;;
2928;SDS011;1474;51.460;7.150;2023-07-09T17:54:43;7.53;;;4.25;;
2928;SDS011;1474;51.460;7.150;2023-07-09T17:57:13;5.75;;;4.63;;
2928;SDS011;1474;51.460;7.150;2023-07-09T17:59:43;5.10;;;4.03;;
2928;SDS011;1474;51.460;7.150;2023-07-09T18:07:17;7.88;;;4.57;;
2928;SDS011;1474;51.460;7.150;2023-07-09T18:09:53;6.60;;;4.40;;
2928;SDS011;1474;51.460;7.150;2023-07-09T18:12:20;6.70;;;4.57;;
2928;SDS011;1474;51.460;7.150;2023-07-09T18:14:53;4.88;;;3.75;;
2928;SDS011;1474;51.460;7.150;2023-07-09T18:17:32;6.10;;;4.60;;
2928;SDS011;1474;51.460;7.150;2023-07-09T18:20:00;4.90;;;4.30;;
2928;SDS011;1474;51.460;7.150;2023-07-09T18:22:31;7.32;;;4.80;;